This is the latest recevied weather packets stored in our database for station/object DK9XR-14. If no packets are shown the sender has not sent any weather packets the latest 1 day(s).
| Time | Temp. | Humidity | Pressure | Rain* | Wind** | Luminosity | Snow |
|---|---|---|---|---|---|---|---|
| 1778072692 | 18.33° C | 52% | 1006.8 hPa | 0 mm | - | - | - |
| 1778072388 | 18.33° C | 52% | 1006.7 hPa | 0 mm | - | - | - |
| 1778072087 | 18.33° C | 53% | 1006.7 hPa | 0 mm | - | - | - |
| 1778071482 | 18.89° C | 53% | 1006.6 hPa | 0 mm | - | - | - |
| 1778069981 | 17.78° C | 53% | 1006.7 hPa | 0 mm | - | - | - |
| 1778069077 | 18.33° C | 55% | 1006.6 hPa | 0 mm | - | - | - |
| 1778068474 | 18.89° C | 54% | 1006.8 hPa | 0 mm | - | - | - |
| 1778068175 | 18.89° C | 53% | 1006.7 hPa | 0 mm | - | - | - |
| 1778067873 | 18.33° C | 55% | 1006.7 hPa | 0 mm | - | - | - |
| 1778067573 | 18.33° C | 54% | 1006.8 hPa | 0 mm | - | - | - |
| 1778066967 | 17.78° C | 53% | 1006.8 hPa | 0 mm | - | - | - |
| 1778066368 | 18.33° C | 53% | 1006.8 hPa | 0 mm | - | - | - |
| 1778066065 | 18.33° C | 54% | 1006.9 hPa | 0 mm | - | - | - |
| 1778065466 | 18.33° C | 54% | 1007 hPa | 0 mm | - | - | - |
| 1778064564 | 18.33° C | 55% | 1007.2 hPa | 0 mm | - | - | - |
| 1778063361 | 17.78° C | 56% | 1007.4 hPa | 0 mm | - | - | - |
| 1778063060 | 17.78° C | 57% | 1007.6 hPa | 0 mm | - | - | - |
| 1778061557 | 17.22° C | 61% | 1007.7 hPa | 0 mm | - | - | - |
| 1778061257 | 17.22° C | 63% | 1007.8 hPa | 0 mm | - | - | - |
| 1778060053 | 17.22° C | 62% | 1007.8 hPa | 0 mm | - | - | - |
| 1778059751 | 17.22° C | 61% | 1007.8 hPa | 0 mm | - | - | - |
| 1778059453 | 17.78° C | 61% | 1007.8 hPa | 0 mm | - | - | - |
| 1778058249 | 16.11° C | 66% | 1007.8 hPa | 0 mm | - | - | - |
| 1778057344 | 16.11° C | 66% | 1007.8 hPa | 0 mm | - | - | - |
| 1778055242 | 14.44° C | 74% | 1007.9 hPa | 0 mm | - | - | - |
* Rain latest hour (hover to see other rain measurements)
** Current wind speed in m/s (hover to see current wind gust speed)